Otley, United Kingdom
Current Conditions -  °F | °C
As of 8:50 AM on Friday 19 Dec 2014 (Local Time) from EGNM Reporting Station
Rain Showers Rain Showers  
Wind Chill: 28°   Ceiling: Unl
Heat Index: 39°   Visibility: 4mi
Dew Point: 36°   Wind: 28mph
Humidity: 87%   Direction: 280°W
Pressure: 29.74"   Gusts: 44mph
Location:  53.91°N, 1.69°W
Report Text: EGNM 190850Z 28024G38KT 6000 SHRA FEW012CB SCT028 04/02 Q1007
Loading
Personal Weather Stations






























Interactive Weather Map New forecast layout! Learn more

10-Day Weather Forecast

Advertisements
Track Severe Weather on mobile